sensor_id;sensor_type;location;lat;lon;timestamp;P1;durP1;ratioP1;P2;durP2;ratioP2
69912;SDS011;57198;52.082;5.108;2023-04-25T00:00:24;11.75;;;4.40;;
69912;SDS011;57198;52.082;5.108;2023-04-25T00:02:52;16.00;;;4.10;;
69912;SDS011;57198;52.082;5.108;2023-04-25T00:05:19;15.43;;;3.67;;
69912;SDS011;57198;52.082;5.108;2023-04-25T00:07:50;9.88;;;3.83;;
69912;SDS011;57198;52.082;5.108;2023-04-25T00:10:17;13.85;;;4.05;;
69912;SDS011;57198;52.082;5.108;2023-04-25T00:12:45;14.65;;;4.18;;
69912;SDS011;57198;52.082;5.108;2023-04-25T00:15:12;10.52;;;4.00;;
69912;SDS011;57198;52.082;5.108;2023-04-25T00:17:40;12.85;;;3.80;;
69912;SDS011;57198;52.082;5.108;2023-04-25T00:20:07;12.77;;;3.70;;
69912;SDS011;57198;52.082;5.108;2023-04-25T00:22:38;9.38;;;3.63;;
69912;SDS011;57198;52.082;5.108;2023-04-25T00:25:05;11.88;;;3.83;;
69912;SDS011;57198;52.082;5.108;2023-04-25T00:27:33;7.43;;;3.15;;
69912;SDS011;57198;52.082;5.108;2023-04-25T00:30:00;6.88;;;3.63;;
69912;SDS011;57198;52.082;5.108;2023-04-25T00:32:27;12.85;;;3.88;;
69912;SDS011;57198;52.082;5.108;2023-04-25T00:34:56;8.52;;;3.35;;
69912;SDS011;57198;52.082;5.108;2023-04-25T00:37:24;9.18;;;3.63;;
69912;SDS011;57198;52.082;5.108;2023-04-25T00:39:52;8.50;;;3.33;;
69912;SDS011;57198;52.082;5.108;2023-04-25T00:42:21;10.07;;;3.83;;
69912;SDS011;57198;52.082;5.108;2023-04-25T00:44:49;9.80;;;3.03;;
69912;SDS011;57198;52.082;5.108;2023-04-25T00:47:17;11.48;;;3.40;;
69912;SDS011;57198;52.082;5.108;2023-04-25T00:49:44;9.60;;;3.20;;
69912;SDS011;57198;52.082;5.108;2023-04-25T00:52:12;10.13;;;3.20;;
69912;SDS011;57198;52.082;5.108;2023-04-25T00:54:39;10.23;;;3.40;;
69912;SDS011;57198;52.082;5.108;2023-04-25T00:57:07;13.30;;;4.05;;
69912;SDS011;57198;52.082;5.108;2023-04-25T00:59:34;12.38;;;3.90;;
69912;SDS011;57198;52.082;5.108;2023-04-25T01:02:03;10.07;;;3.63;;
69912;SDS011;57198;52.082;5.108;2023-04-25T01:04:31;12.65;;;3.58;;
69912;SDS011;57198;52.082;5.108;2023-04-25T01:06:58;10.68;;;3.83;;
69912;SDS011;57198;52.082;5.108;2023-04-25T01:09:26;12.18;;;3.80;;
69912;SDS011;57198;52.082;5.108;2023-04-25T01:11:54;15.93;;;3.78;;
69912;SDS011;57198;52.082;5.108;2023-04-25T01:14:22;13.52;;;3.78;;
69912;SDS011;57198;52.082;5.108;2023-04-25T01:16:49;15.45;;;3.65;;
69912;SDS011;57198;52.082;5.108;2023-04-25T01:19:17;12.05;;;4.57;;
69912;SDS011;57198;52.082;5.108;2023-04-25T01:21:45;14.88;;;3.80;;
69912;SDS011;57198;52.082;5.108;2023-04-25T01:24:13;14.90;;;3.80;;
69912;SDS011;57198;52.082;5.108;2023-04-25T01:26:41;9.93;;;3.53;;
69912;SDS011;57198;52.082;5.108;2023-04-25T01:29:20;8.32;;;3.80;;
69912;SDS011;57198;52.082;5.108;2023-04-25T01:31:47;9.73;;;3.70;;
69912;SDS011;57198;52.082;5.108;2023-04-25T01:34:16;18.30;;;3.50;;
69912;SDS011;57198;52.082;5.108;2023-04-25T01:36:43;11.75;;;3.55;;
69912;SDS011;57198;52.082;5.108;2023-04-25T01:39:11;8.95;;;3.63;;
69912;SDS011;57198;52.082;5.108;2023-04-25T01:41:38;15.77;;;3.70;;
69912;SDS011;57198;52.082;5.108;2023-04-25T01:44:06;14.43;;;3.88;;
69912;SDS011;57198;52.082;5.108;2023-04-25T01:46:35;16.50;;;4.28;;
69912;SDS011;57198;52.082;5.108;2023-04-25T01:49:03;12.88;;;3.75;;
69912;SDS011;57198;52.082;5.108;2023-04-25T01:51:31;13.95;;;3.85;;
69912;SDS011;57198;52.082;5.108;2023-04-25T01:53:59;15.82;;;4.20;;
69912;SDS011;57198;52.082;5.108;2023-04-25T01:56:31;15.30;;;3.85;;
69912;SDS011;57198;52.082;5.108;2023-04-25T01:59:01;12.40;;;3.65;;
69912;SDS011;57198;52.082;5.108;2023-04-25T02:01:48;8.43;;;3.70;;
69912;SDS011;57198;52.082;5.108;2023-04-25T02:04:23;13.55;;;3.35;;
69912;SDS011;57198;52.082;5.108;2023-04-25T02:06:51;16.00;;;4.10;;
69912;SDS011;57198;52.082;5.108;2023-04-25T02:09:19;10.90;;;2.70;;
69912;SDS011;57198;52.082;5.108;2023-04-25T02:11:52;8.65;;;3.05;;
69912;SDS011;57198;52.082;5.108;2023-04-25T02:14:26;13.60;;;4.00;;
69912;SDS011;57198;52.082;5.108;2023-04-25T02:17:13;9.80;;;4.13;;
69912;SDS011;57198;52.082;5.108;2023-04-25T02:19:41;14.85;;;3.28;;
69912;SDS011;57198;52.082;5.108;2023-04-25T02:22:08;12.30;;;3.47;;
69912;SDS011;57198;52.082;5.108;2023-04-25T02:24:36;7.13;;;3.78;;
69912;SDS011;57198;52.082;5.108;2023-04-25T02:27:04;8.75;;;3.55;;
69912;SDS011;57198;52.082;5.108;2023-04-25T02:29:34;14.20;;;4.38;;
69912;SDS011;57198;52.082;5.108;2023-04-25T02:32:01;13.25;;;3.65;;
69912;SDS011;57198;52.082;5.108;2023-04-25T02:34:28;12.70;;;4.45;;
69912;SDS011;57198;52.082;5.108;2023-04-25T02:36:59;12.98;;;3.63;;
69912;SDS011;57198;52.082;5.108;2023-04-25T02:39:27;11.95;;;4.63;;
69912;SDS011;57198;52.082;5.108;2023-04-25T02:41:54;18.45;;;5.35;;
69912;SDS011;57198;52.082;5.108;2023-04-25T02:44:22;14.25;;;5.40;;
69912;SDS011;57198;52.082;5.108;2023-04-25T02:46:49;13.48;;;5.05;;
69912;SDS011;57198;52.082;5.108;2023-04-25T02:49:17;20.42;;;5.53;;
69912;SDS011;57198;52.082;5.108;2023-04-25T02:51:44;16.65;;;5.13;;
69912;SDS011;57198;52.082;5.108;2023-04-25T02:54:13;11.25;;;4.00;;
69912;SDS011;57198;52.082;5.108;2023-04-25T02:56:43;14.90;;;4.40;;
69912;SDS011;57198;52.082;5.108;2023-04-25T02:59:16;13.50;;;3.95;;
69912;SDS011;57198;52.082;5.108;2023-04-25T03:01:43;16.17;;;4.28;;
69912;SDS011;57198;52.082;5.108;2023-04-25T03:04:11;19.80;;;4.25;;
69912;SDS011;57198;52.082;5.108;2023-04-25T03:06:39;14.23;;;4.60;;
69912;SDS011;57198;52.082;5.108;2023-04-25T03:09:06;13.07;;;4.90;;
69912;SDS011;57198;52.082;5.108;2023-04-25T03:11:33;15.43;;;4.70;;
69912;SDS011;57198;52.082;5.108;2023-04-25T03:14:01;13.40;;;4.40;;
69912;SDS011;57198;52.082;5.108;2023-04-25T03:16:28;13.20;;;4.75;;
69912;SDS011;57198;52.082;5.108;2023-04-25T03:18:57;11.80;;;3.33;;
69912;SDS011;57198;52.082;5.108;2023-04-25T03:21:25;8.13;;;3.42;;
69912;SDS011;57198;52.082;5.108;2023-04-25T03:23:52;7.45;;;3.67;;
69912;SDS011;57198;52.082;5.108;2023-04-25T03:26:20;10.65;;;3.95;;
69912;SDS011;57198;52.082;5.108;2023-04-25T03:28:47;8.13;;;3.83;;
69912;SDS011;57198;52.082;5.108;2023-04-25T03:31:15;4.75;;;2.78;;
69912;SDS011;57198;52.082;5.108;2023-04-25T03:33:43;5.35;;;2.90;;
69912;SDS011;57198;52.082;5.108;2023-04-25T03:36:10;6.53;;;2.58;;
69912;SDS011;57198;52.082;5.108;2023-04-25T03:38:38;6.53;;;2.92;;
69912;SDS011;57198;52.082;5.108;2023-04-25T03:41:08;7.50;;;2.55;;
69912;SDS011;57198;52.082;5.108;2023-04-25T03:43:45;8.15;;;3.42;;
69912;SDS011;57198;52.082;5.108;2023-04-25T03:46:15;7.95;;;2.83;;
69912;SDS011;57198;52.082;5.108;2023-04-25T03:48:42;6.68;;;3.22;;
69912;SDS011;57198;52.082;5.108;2023-04-25T03:51:15;5.55;;;2.35;;
69912;SDS011;57198;52.082;5.108;2023-04-25T03:53:44;4.20;;;2.50;;
69912;SDS011;57198;52.082;5.108;2023-04-25T03:56:14;7.07;;;1.90;;
69912;SDS011;57198;52.082;5.108;2023-04-25T03:58:44;5.35;;;2.10;;
69912;SDS011;57198;52.082;5.108;2023-04-25T04:01:14;6.57;;;2.25;;
69912;SDS011;57198;52.082;5.108;2023-04-25T04:03:41;8.23;;;2.72;;
69912;SDS011;57198;52.082;5.108;2023-04-25T04:06:09;6.43;;;2.92;;
69912;SDS011;57198;52.082;5.108;2023-04-25T04:08:42;4.22;;;2.13;;
69912;SDS011;57198;52.082;5.108;2023-04-25T04:11:10;6.05;;;3.08;;
69912;SDS011;57198;52.082;5.108;2023-04-25T04:13:38;6.45;;;2.65;;
69912;SDS011;57198;52.082;5.108;2023-04-25T04:16:06;8.20;;;2.28;;
69912;SDS011;57198;52.082;5.108;2023-04-25T04:18:34;10.20;;;3.05;;
69912;SDS011;57198;52.082;5.108;2023-04-25T04:21:02;5.45;;;2.70;;
69912;SDS011;57198;52.082;5.108;2023-04-25T04:23:32;10.43;;;2.60;;
69912;SDS011;57198;52.082;5.108;2023-04-25T04:26:00;9.30;;;2.85;;
69912;SDS011;57198;52.082;5.108;2023-04-25T04:28:38;7.43;;;2.80;;
69912;SDS011;57198;52.082;5.108;2023-04-25T04:31:29;7.50;;;2.70;;
69912;SDS011;57198;52.082;5.108;2023-04-25T04:33:58;9.65;;;3.05;;
69912;SDS011;57198;52.082;5.108;2023-04-25T04:36:25;5.40;;;2.50;;
69912;SDS011;57198;52.082;5.108;2023-04-25T04:38:53;5.90;;;3.00;;
69912;SDS011;57198;52.082;5.108;2023-04-25T04:41:33;7.50;;;2.75;;
69912;SDS011;57198;52.082;5.108;2023-04-25T04:44:14;9.13;;;2.92;;
69912;SDS011;57198;52.082;5.108;2023-04-25T04:46:48;9.02;;;2.58;;
69912;SDS011;57198;52.082;5.108;2023-04-25T04:49:31;6.00;;;2.67;;
69912;SDS011;57198;52.082;5.108;2023-04-25T04:52:17;5.88;;;2.50;;
69912;SDS011;57198;52.082;5.108;2023-04-25T04:54:54;7.03;;;2.78;;
69912;SDS011;57198;52.082;5.108;2023-04-25T04:57:51;6.70;;;2.53;;
69912;SDS011;57198;52.082;5.108;2023-04-25T05:00:38;5.53;;;2.78;;
69912;SDS011;57198;52.082;5.108;2023-04-25T05:03:31;5.90;;;2.38;;
69912;SDS011;57198;52.082;5.108;2023-04-25T05:06:01;7.20;;;2.42;;
69912;SDS011;57198;52.082;5.108;2023-04-25T05:08:36;3.58;;;2.42;;
69912;SDS011;57198;52.082;5.108;2023-04-25T05:11:29;4.38;;;2.40;;
69912;SDS011;57198;52.082;5.108;2023-04-25T05:14:17;6.63;;;2.50;;
69912;SDS011;57198;52.082;5.108;2023-04-25T05:17:02;11.00;;;3.25;;
69912;SDS011;57198;52.082;5.108;2023-04-25T05:19:54;5.55;;;2.72;;
69912;SDS011;57198;52.082;5.108;2023-04-25T05:22:49;7.57;;;2.15;;
69912;SDS011;57198;52.082;5.108;2023-04-25T05:25:36;5.85;;;2.08;;
69912;SDS011;57198;52.082;5.108;2023-04-25T05:28:30;6.15;;;2.05;;
69912;SDS011;57198;52.082;5.108;2023-04-25T05:31:11;8.02;;;2.95;;
69912;SDS011;57198;52.082;5.108;2023-04-25T05:34:05;8.05;;;3.08;;
69912;SDS011;57198;52.082;5.108;2023-04-25T05:36:42;9.82;;;2.58;;
69912;SDS011;57198;52.082;5.108;2023-04-25T05:39:10;7.20;;;2.40;;
69912;SDS011;57198;52.082;5.108;2023-04-25T05:42:00;5.68;;;3.53;;
69912;SDS011;57198;52.082;5.108;2023-04-25T05:45:06;7.60;;;2.00;;
69912;SDS011;57198;52.082;5.108;2023-04-25T05:48:06;7.72;;;2.10;;
69912;SDS011;57198;52.082;5.108;2023-04-25T05:50:52;8.65;;;2.58;;
69912;SDS011;57198;52.082;5.108;2023-04-25T05:53:52;3.85;;;2.17;;
69912;SDS011;57198;52.082;5.108;2023-04-25T05:56:20;7.30;;;2.58;;
69912;SDS011;57198;52.082;5.108;2023-04-25T05:58:50;6.38;;;2.42;;
69912;SDS011;57198;52.082;5.108;2023-04-25T06:01:18;7.45;;;2.20;;
69912;SDS011;57198;52.082;5.108;2023-04-25T06:03:46;11.10;;;2.35;;
69912;SDS011;57198;52.082;5.108;2023-04-25T06:06:16;6.75;;;2.42;;
69912;SDS011;57198;52.082;5.108;2023-04-25T06:08:43;9.48;;;2.72;;
69912;SDS011;57198;52.082;5.108;2023-04-25T06:11:11;8.35;;;2.67;;
69912;SDS011;57198;52.082;5.108;2023-04-25T06:13:38;6.38;;;2.20;;
69912;SDS011;57198;52.082;5.108;2023-04-25T06:16:06;6.85;;;2.92;;
69912;SDS011;57198;52.082;5.108;2023-04-25T06:18:34;11.20;;;2.95;;
69912;SDS011;57198;52.082;5.108;2023-04-25T06:21:01;5.82;;;2.28;;
69912;SDS011;57198;52.082;5.108;2023-04-25T06:23:29;8.02;;;2.45;;
69912;SDS011;57198;52.082;5.108;2023-04-25T06:26:01;12.35;;;2.80;;
69912;SDS011;57198;52.082;5.108;2023-04-25T06:28:30;12.68;;;2.58;;
69912;SDS011;57198;52.082;5.108;2023-04-25T06:30:58;12.43;;;3.28;;
69912;SDS011;57198;52.082;5.108;2023-04-25T06:33:26;10.20;;;2.57;;
69912;SDS011;57198;52.082;5.108;2023-04-25T06:35:54;5.40;;;2.53;;
69912;SDS011;57198;52.082;5.108;2023-04-25T06:38:25;8.77;;;2.92;;
69912;SDS011;57198;52.082;5.108;2023-04-25T06:40:54;9.68;;;3.20;;
69912;SDS011;57198;52.082;5.108;2023-04-25T06:43:22;9.65;;;2.65;;
69912;SDS011;57198;52.082;5.108;2023-04-25T06:45:52;8.93;;;2.25;;
69912;SDS011;57198;52.082;5.108;2023-04-25T06:48:21;5.78;;;2.10;;
69912;SDS011;57198;52.082;5.108;2023-04-25T06:50:49;9.75;;;2.58;;
69912;SDS011;57198;52.082;5.108;2023-04-25T06:53:17;10.52;;;2.50;;
69912;SDS011;57198;52.082;5.108;2023-04-25T06:55:49;6.10;;;2.60;;
69912;SDS011;57198;52.082;5.108;2023-04-25T06:58:20;7.97;;;2.40;;
69912;SDS011;57198;52.082;5.108;2023-04-25T07:01:22;8.43;;;2.50;;
69912;SDS011;57198;52.082;5.108;2023-04-25T07:03:50;9.95;;;2.85;;
69912;SDS011;57198;52.082;5.108;2023-04-25T07:06:18;8.75;;;3.22;;
69912;SDS011;57198;52.082;5.108;2023-04-25T07:08:45;9.23;;;2.58;;
69912;SDS011;57198;52.082;5.108;2023-04-25T07:11:13;5.03;;;2.47;;
69912;SDS011;57198;52.082;5.108;2023-04-25T07:13:40;8.00;;;2.83;;
69912;SDS011;57198;52.082;5.108;2023-04-25T07:16:07;7.93;;;2.13;;
69912;SDS011;57198;52.082;5.108;2023-04-25T07:18:35;7.35;;;2.30;;
69912;SDS011;57198;52.082;5.108;2023-04-25T07:21:03;5.75;;;2.67;;
69912;SDS011;57198;52.082;5.108;2023-04-25T07:23:32;11.40;;;3.25;;
69912;SDS011;57198;52.082;5.108;2023-04-25T07:26:05;10.43;;;3.00;;
69912;SDS011;57198;52.082;5.108;2023-04-25T07:28:33;6.07;;;2.10;;
69912;SDS011;57198;52.082;5.108;2023-04-25T07:31:01;9.65;;;2.75;;
69912;SDS011;57198;52.082;5.108;2023-04-25T07:33:30;5.78;;;3.17;;
69912;SDS011;57198;52.082;5.108;2023-04-25T07:35:58;8.50;;;2.92;;
69912;SDS011;57198;52.082;5.108;2023-04-25T07:38:26;6.55;;;1.75;;
69912;SDS011;57198;52.082;5.108;2023-04-25T07:40:54;6.40;;;1.77;;
69912;SDS011;57198;52.082;5.108;2023-04-25T07:43:21;4.80;;;2.33;;
69912;SDS011;57198;52.082;5.108;2023-04-25T07:45:56;4.38;;;1.77;;
69912;SDS011;57198;52.082;5.108;2023-04-25T07:48:26;3.50;;;1.90;;
69912;SDS011;57198;52.082;5.108;2023-04-25T07:50:55;3.65;;;1.55;;
69912;SDS011;57198;52.082;5.108;2023-04-25T07:53:22;2.70;;;1.25;;
69912;SDS011;57198;52.082;5.108;2023-04-25T07:55:58;7.45;;;2.03;;
69912;SDS011;57198;52.082;5.108;2023-04-25T07:58:27;6.40;;;1.90;;
69912;SDS011;57198;52.082;5.108;2023-04-25T08:00:58;7.13;;;2.07;;
69912;SDS011;57198;52.082;5.108;2023-04-25T08:03:40;4.70;;;2.08;;
69912;SDS011;57198;52.082;5.108;2023-04-25T08:06:14;6.13;;;2.72;;
69912;SDS011;57198;52.082;5.108;2023-04-25T08:08:51;4.97;;;2.60;;
69912;SDS011;57198;52.082;5.108;2023-04-25T08:11:22;6.68;;;3.55;;
69912;SDS011;57198;52.082;5.108;2023-04-25T08:13:49;7.13;;;2.27;;
69912;SDS011;57198;52.082;5.108;2023-04-25T08:16:16;9.63;;;2.25;;
69912;SDS011;57198;52.082;5.108;2023-04-25T08:18:45;8.85;;;2.10;;
69912;SDS011;57198;52.082;5.108;2023-04-25T08:21:12;10.40;;;2.95;;
69912;SDS011;57198;52.082;5.108;2023-04-25T08:23:40;5.50;;;3.13;;
69912;SDS011;57198;52.082;5.108;2023-04-25T08:26:11;9.65;;;2.92;;
69912;SDS011;57198;52.082;5.108;2023-04-25T08:28:40;6.72;;;2.30;;
69912;SDS011;57198;52.082;5.108;2023-04-25T08:31:08;8.43;;;2.95;;
69912;SDS011;57198;52.082;5.108;2023-04-25T08:33:53;5.45;;;1.98;;
69912;SDS011;57198;52.082;5.108;2023-04-25T08:36:29;7.43;;;3.22;;
69912;SDS011;57198;52.082;5.108;2023-04-25T08:39:17;6.77;;;1.97;;
69912;SDS011;57198;52.082;5.108;2023-04-25T08:42:06;7.65;;;2.63;;
69912;SDS011;57198;52.082;5.108;2023-04-25T08:44:37;11.73;;;2.60;;
69912;SDS011;57198;52.082;5.108;2023-04-25T08:47:05;8.45;;;3.03;;
69912;SDS011;57198;52.082;5.108;2023-04-25T08:49:40;10.13;;;2.95;;
69912;SDS011;57198;52.082;5.108;2023-04-25T08:52:13;8.27;;;2.77;;
69912;SDS011;57198;52.082;5.108;2023-04-25T08:54:44;10.85;;;3.42;;
69912;SDS011;57198;52.082;5.108;2023-04-25T08:57:16;6.15;;;2.45;;
69912;SDS011;57198;52.082;5.108;2023-04-25T08:59:45;7.63;;;3.00;;
69912;SDS011;57198;52.082;5.108;2023-04-25T09:02:15;7.53;;;2.47;;
69912;SDS011;57198;52.082;5.108;2023-04-25T09:04:47;7.70;;;2.57;;
69912;SDS011;57198;52.082;5.108;2023-04-25T09:07:15;4.32;;;1.60;;
69912;SDS011;57198;52.082;5.108;2023-04-25T09:09:45;2.30;;;1.73;;
69912;SDS011;57198;52.082;5.108;2023-04-25T09:12:18;6.80;;;1.98;;
69912;SDS011;57198;52.082;5.108;2023-04-25T09:15:03;4.80;;;1.80;;
69912;SDS011;57198;52.082;5.108;2023-04-25T09:17:54;3.73;;;1.90;;
69912;SDS011;57198;52.082;5.108;2023-04-25T09:20:23;6.63;;;2.85;;
69912;SDS011;57198;52.082;5.108;2023-04-25T09:23:01;6.05;;;1.80;;
69912;SDS011;57198;52.082;5.108;2023-04-25T09:25:37;2.90;;;2.25;;
69912;SDS011;57198;52.082;5.108;2023-04-25T09:28:10;3.35;;;1.70;;
69912;SDS011;57198;52.082;5.108;2023-04-25T09:30:38;3.30;;;1.70;;
69912;SDS011;57198;52.082;5.108;2023-04-25T09:33:12;7.75;;;2.05;;
69912;SDS011;57198;52.082;5.108;2023-04-25T09:35:45;7.82;;;1.63;;
69912;SDS011;57198;52.082;5.108;2023-04-25T09:38:20;3.15;;;1.38;;
69912;SDS011;57198;52.082;5.108;2023-04-25T09:41:01;3.80;;;1.60;;
69912;SDS011;57198;52.082;5.108;2023-04-25T09:43:37;4.90;;;2.10;;
69912;SDS011;57198;52.082;5.108;2023-04-25T09:46:08;3.63;;;1.50;;
69912;SDS011;57198;52.082;5.108;2023-04-25T09:48:43;4.45;;;1.65;;
69912;SDS011;57198;52.082;5.108;2023-04-25T09:51:16;1.70;;;1.60;;
69912;SDS011;57198;52.082;5.108;2023-04-25T09:53:45;3.20;;;1.42;;
69912;SDS011;57198;52.082;5.108;2023-04-25T09:56:36;2.57;;;1.40;;
69912;SDS011;57198;52.082;5.108;2023-04-25T09:59:06;2.72;;;1.52;;
69912;SDS011;57198;52.082;5.108;2023-04-25T10:01:35;4.38;;;1.63;;
69912;SDS011;57198;52.082;5.108;2023-04-25T10:04:12;2.60;;;1.60;;
69912;SDS011;57198;52.082;5.108;2023-04-25T10:07:06;3.67;;;1.92;;
69912;SDS011;57198;52.082;5.108;2023-04-25T10:09:36;3.15;;;1.85;;
69912;SDS011;57198;52.082;5.108;2023-04-25T10:12:04;2.33;;;1.60;;
69912;SDS011;57198;52.082;5.108;2023-04-25T10:14:32;2.53;;;1.77;;
69912;SDS011;57198;52.082;5.108;2023-04-25T10:16:59;3.58;;;1.80;;
69912;SDS011;57198;52.082;5.108;2023-04-25T10:19:27;4.55;;;1.70;;
69912;SDS011;57198;52.082;5.108;2023-04-25T10:22:02;4.03;;;1.80;;
69912;SDS011;57198;52.082;5.108;2023-04-25T10:24:30;5.53;;;2.08;;
69912;SDS011;57198;52.082;5.108;2023-04-25T10:26:58;2.92;;;1.88;;
69912;SDS011;57198;52.082;5.108;2023-04-25T10:29:26;4.63;;;2.20;;
69912;SDS011;57198;52.082;5.108;2023-04-25T10:31:53;4.97;;;2.33;;
69912;SDS011;57198;52.082;5.108;2023-04-25T10:34:25;3.17;;;2.30;;
69912;SDS011;57198;52.082;5.108;2023-04-25T10:37:05;7.38;;;2.70;;
69912;SDS011;57198;52.082;5.108;2023-04-25T10:39:33;5.22;;;1.83;;
69912;SDS011;57198;52.082;5.108;2023-04-25T10:42:01;5.50;;;2.13;;
69912;SDS011;57198;52.082;5.108;2023-04-25T10:44:29;2.80;;;1.75;;
69912;SDS011;57198;52.082;5.108;2023-04-25T10:47:00;4.30;;;2.00;;
69912;SDS011;57198;52.082;5.108;2023-04-25T10:54:45;5.95;;;2.60;;
69912;SDS011;57198;52.082;5.108;2023-04-25T11:00:00;5.13;;;1.23;;
69912;SDS011;57198;52.082;5.108;2023-04-25T11:02:31;6.32;;;1.50;;
69912;SDS011;57198;52.082;5.108;2023-04-25T11:04:59;4.68;;;1.63;;
69912;SDS011;57198;52.082;5.108;2023-04-25T11:07:34;3.50;;;2.15;;
69912;SDS011;57198;52.082;5.108;2023-04-25T11:10:04;5.85;;;2.30;;
69912;SDS011;57198;52.082;5.108;2023-04-25T11:12:32;6.33;;;1.70;;
69912;SDS011;57198;52.082;5.108;2023-04-25T11:15:00;4.78;;;1.92;;
69912;SDS011;57198;52.082;5.108;2023-04-25T11:17:28;6.57;;;2.13;;
69912;SDS011;57198;52.082;5.108;2023-04-25T11:19:56;3.65;;;1.80;;
69912;SDS011;57198;52.082;5.108;2023-04-25T11:22:23;5.72;;;2.22;;
69912;SDS011;57198;52.082;5.108;2023-04-25T11:24:51;4.40;;;2.13;;
69912;SDS011;57198;52.082;5.108;2023-04-25T11:27:18;4.82;;;2.30;;
69912;SDS011;57198;52.082;5.108;2023-04-25T11:29:46;8.13;;;1.98;;
69912;SDS011;57198;52.082;5.108;2023-04-25T11:32:17;5.35;;;1.23;;
69912;SDS011;57198;52.082;5.108;2023-04-25T11:34:47;4.13;;;1.58;;
69912;SDS011;57198;52.082;5.108;2023-04-25T11:37:14;1.77;;;1.53;;
69912;SDS011;57198;52.082;5.108;2023-04-25T11:39:43;4.72;;;1.90;;
69912;SDS011;57198;52.082;5.108;2023-04-25T11:42:11;6.38;;;2.00;;
69912;SDS011;57198;52.082;5.108;2023-04-25T11:44:39;3.35;;;1.63;;
69912;SDS011;57198;52.082;5.108;2023-04-25T11:47:07;2.30;;;1.73;;
69912;SDS011;57198;52.082;5.108;2023-04-25T11:49:34;2.63;;;1.67;;
69912;SDS011;57198;52.082;5.108;2023-04-25T11:52:02;4.30;;;1.70;;
69912;SDS011;57198;52.082;5.108;2023-04-25T11:54:30;3.55;;;1.30;;
69912;SDS011;57198;52.082;5.108;2023-04-25T11:56:57;6.47;;;1.95;;
69912;SDS011;57198;52.082;5.108;2023-04-25T11:59:25;5.70;;;1.73;;
69912;SDS011;57198;52.082;5.108;2023-04-25T12:01:52;6.90;;;1.60;;
69912;SDS011;57198;52.082;5.108;2023-04-25T12:04:21;4.47;;;1.40;;
69912;SDS011;57198;52.082;5.108;2023-04-25T12:06:50;7.90;;;1.88;;
69912;SDS011;57198;52.082;5.108;2023-04-25T12:09:19;6.38;;;1.70;;
69912;SDS011;57198;52.082;5.108;2023-04-25T12:11:54;5.03;;;1.98;;
69912;SDS011;57198;52.082;5.108;2023-04-25T12:14:22;4.03;;;1.70;;
69912;SDS011;57198;52.082;5.108;2023-04-25T12:16:57;4.30;;;1.73;;
69912;SDS011;57198;52.082;5.108;2023-04-25T12:19:26;2.35;;;1.75;;
69912;SDS011;57198;52.082;5.108;2023-04-25T12:21:53;7.60;;;1.90;;
69912;SDS011;57198;52.082;5.108;2023-04-25T12:24:25;5.13;;;2.40;;
69912;SDS011;57198;52.082;5.108;2023-04-25T12:27:01;6.33;;;2.73;;
69912;SDS011;57198;52.082;5.108;2023-04-25T12:29:30;4.18;;;2.60;;
69912;SDS011;57198;52.082;5.108;2023-04-25T12:32:14;3.20;;;1.83;;
69912;SDS011;57198;52.082;5.108;2023-04-25T12:34:41;3.10;;;1.95;;
69912;SDS011;57198;52.082;5.108;2023-04-25T12:37:09;4.85;;;1.55;;
69912;SDS011;57198;52.082;5.108;2023-04-25T12:39:36;12.87;;;2.47;;
69912;SDS011;57198;52.082;5.108;2023-04-25T12:42:04;5.57;;;1.65;;
69912;SDS011;57198;52.082;5.108;2023-04-25T12:44:35;3.97;;;1.35;;
69912;SDS011;57198;52.082;5.108;2023-04-25T12:47:02;4.90;;;1.95;;
69912;SDS011;57198;52.082;5.108;2023-04-25T12:49:30;5.57;;;1.98;;
69912;SDS011;57198;52.082;5.108;2023-04-25T12:51:57;4.90;;;1.67;;
69912;SDS011;57198;52.082;5.108;2023-04-25T12:54:25;6.18;;;1.60;;
69912;SDS011;57198;52.082;5.108;2023-04-25T12:56:52;3.80;;;1.50;;
69912;SDS011;57198;52.082;5.108;2023-04-25T12:59:21;4.30;;;1.90;;
69912;SDS011;57198;52.082;5.108;2023-04-25T13:01:48;7.10;;;1.88;;
69912;SDS011;57198;52.082;5.108;2023-04-25T13:04:16;4.87;;;1.70;;
69912;SDS011;57198;52.082;5.108;2023-04-25T13:06:44;7.05;;;2.35;;
69912;SDS011;57198;52.082;5.108;2023-04-25T13:09:11;3.00;;;1.60;;
69912;SDS011;57198;52.082;5.108;2023-04-25T13:11:39;3.30;;;1.40;;
69912;SDS011;57198;52.082;5.108;2023-04-25T13:14:07;3.53;;;2.20;;
69912;SDS011;57198;52.082;5.108;2023-04-25T13:16:35;5.20;;;2.10;;
69912;SDS011;57198;52.082;5.108;2023-04-25T13:19:02;4.20;;;1.83;;
69912;SDS011;57198;52.082;5.108;2023-04-25T13:21:30;3.58;;;1.50;;
69912;SDS011;57198;52.082;5.108;2023-04-25T13:23:59;3.80;;;1.65;;
69912;SDS011;57198;52.082;5.108;2023-04-25T13:26:26;4.65;;;1.55;;
69912;SDS011;57198;52.082;5.108;2023-04-25T13:28:53;4.40;;;1.90;;
69912;SDS011;57198;52.082;5.108;2023-04-25T13:31:21;3.35;;;1.92;;
69912;SDS011;57198;52.082;5.108;2023-04-25T13:33:48;5.43;;;1.60;;
69912;SDS011;57198;52.082;5.108;2023-04-25T13:36:16;3.78;;;1.10;;
69912;SDS011;57198;52.082;5.108;2023-04-25T13:38:43;4.43;;;1.73;;
69912;SDS011;57198;52.082;5.108;2023-04-25T13:41:14;6.13;;;3.40;;
69912;SDS011;57198;52.082;5.108;2023-04-25T13:43:45;3.55;;;1.95;;
69912;SDS011;57198;52.082;5.108;2023-04-25T13:46:14;3.67;;;1.65;;
69912;SDS011;57198;52.082;5.108;2023-04-25T13:49:02;3.35;;;1.50;;
69912;SDS011;57198;52.082;5.108;2023-04-25T13:51:38;4.35;;;1.55;;
69912;SDS011;57198;52.082;5.108;2023-04-25T13:54:05;4.87;;;1.27;;
69912;SDS011;57198;52.082;5.108;2023-04-25T13:56:33;3.25;;;1.50;;
69912;SDS011;57198;52.082;5.108;2023-04-25T13:59:01;2.60;;;1.50;;
69912;SDS011;57198;52.082;5.108;2023-04-25T14:01:28;5.63;;;1.55;;
69912;SDS011;57198;52.082;5.108;2023-04-25T14:03:57;11.45;;;1.73;;
69912;SDS011;57198;52.082;5.108;2023-04-25T14:06:25;6.43;;;1.60;;
69912;SDS011;57198;52.082;5.108;2023-04-25T14:08:53;7.90;;;2.35;;
69912;SDS011;57198;52.082;5.108;2023-04-25T14:11:21;4.25;;;1.58;;
69912;SDS011;57198;52.082;5.108;2023-04-25T14:13:48;6.10;;;1.42;;
69912;SDS011;57198;52.082;5.108;2023-04-25T14:16:16;3.47;;;1.60;;
69912;SDS011;57198;52.082;5.108;2023-04-25T14:18:44;10.27;;;1.47;;
69912;SDS011;57198;52.082;5.108;2023-04-25T14:21:11;5.53;;;1.92;;
69912;SDS011;57198;52.082;5.108;2023-04-25T14:23:38;6.20;;;1.98;;
69912;SDS011;57198;52.082;5.108;2023-04-25T14:26:06;3.40;;;1.88;;
69912;SDS011;57198;52.082;5.108;2023-04-25T14:28:35;6.35;;;2.10;;
69912;SDS011;57198;52.082;5.108;2023-04-25T14:31:03;4.60;;;1.57;;
69912;SDS011;57198;52.082;5.108;2023-04-25T14:33:30;5.63;;;1.63;;
69912;SDS011;57198;52.082;5.108;2023-04-25T14:35:58;4.05;;;1.60;;
69912;SDS011;57198;52.082;5.108;2023-04-25T14:38:25;5.10;;;2.80;;
69912;SDS011;57198;52.082;5.108;2023-04-25T14:40:53;3.15;;;2.17;;
69912;SDS011;57198;52.082;5.108;2023-04-25T14:43:20;4.93;;;2.57;;
69912;SDS011;57198;52.082;5.108;2023-04-25T14:45:48;6.78;;;2.88;;
69912;SDS011;57198;52.082;5.108;2023-04-25T14:48:15;5.65;;;2.35;;
69912;SDS011;57198;52.082;5.108;2023-04-25T14:50:46;5.40;;;2.08;;
69912;SDS011;57198;52.082;5.108;2023-04-25T14:53:13;5.30;;;1.85;;
69912;SDS011;57198;52.082;5.108;2023-04-25T14:55:40;6.70;;;2.33;;
69912;SDS011;57198;52.082;5.108;2023-04-25T14:58:08;3.88;;;1.58;;
69912;SDS011;57198;52.082;5.108;2023-04-25T15:00:35;5.25;;;2.42;;
69912;SDS011;57198;52.082;5.108;2023-04-25T15:03:03;4.53;;;2.05;;
69912;SDS011;57198;52.082;5.108;2023-04-25T15:05:31;4.57;;;1.95;;
69912;SDS011;57198;52.082;5.108;2023-04-25T15:07:59;4.13;;;1.67;;
69912;SDS011;57198;52.082;5.108;2023-04-25T15:10:26;5.47;;;1.98;;
69912;SDS011;57198;52.082;5.108;2023-04-25T15:12:54;4.65;;;1.73;;
69912;SDS011;57198;52.082;5.108;2023-04-25T15:15:21;4.13;;;2.13;;